ADDS METAR Data INFO
IDs: Format: Raw Decoded Include TAF

Data at: 1515 UTC 11 Dec 2017

KPTK 111511Z 13006KT 1 1/2SM -SN OVC029 M06/M09 A2996 RMK AO2 SNB08 P0000 T10611089
KPTK 111453Z 11007KT 10SM OVC032 M06/M09 A2997 RMK AO2 SLP164 T10611089 58007
KPTK 111353Z 12004KT 10SM OVC031 M07/M09 A2999 RMK AO2 SLP170 T10671089
KPTK 111253Z 00000KT 10SM FEW022 OVC030 M07/M09 A3002 RMK AO2 SLP182 T10671094
KPTK 111153Z 09004KT 10SM FEW025 OVC031 M07/M10 A2999 RMK AO2 SLP171 T10671100 11039 21067 58003
KPTK 111053Z 36005KT 10SM FEW025 OVC032 M07/M10 A3001 RMK AO2 SLP176 T10671100
KPTK 110953Z AUTO 36005KT 10SM OVC032 M06/M09 A3000 RMK AO2 SLP173 T10611094
KPTK 110941Z AUTO 35007KT 10SM SCT025 OVC032 M06/M09 A3000 RMK AO2 T10611094
KPTK 110853Z AUTO 33006KT 10SM FEW017 OVC022 M06/M08 A3000 RMK AO2 SLP173 T10611083 53010
KPTK 110753Z AUTO 34008KT 10SM SCT018 BKN024 M06/M08 A2999 RMK AO2 SLP169 T10561078
KPTK 110653Z AUTO 31006KT 10SM FEW015 SCT019 BKN027 M04/M06 A2996 RMK AO2 SLP159 T10441061
KPTK 110553Z AUTO 31008KT 10SM BKN016 OVC024 M04/M06 A2997 RMK AO2 SLP162 60000 I6000 T10391056 11033 21039 53012
KPTK 110453Z 30012KT 9SM OVC015 M04/M05 A2996 RMK AO2 SNE49 SLP158 LAST P0000 T10391050 410331067
KPTK 110414Z 29008KT 4SM -SN SCT012 BKN020 OVC029 M04/M05 A2994 RMK AO2 P0000 T10391050
KPTK 110400Z 29008KT 2 1/2SM -SN SCT012 BKN029 OVC039 M04/M04 A2993 RMK AO2 P0000 T10391044
KPTK 110353Z 30008KT 4SM -SN SCT008 BKN012 OVC039 M04/M04 A2993 RMK AO2 SLP149 P0000 T10391044
KPTK 110253Z 29009KT 3SM -SN OVC008 M04/M04 A2993 RMK AO2 CIG 006V011 SLP150 P0000 60000 I3000 T10391044 53009
KPTK 110155Z 26007KT 4SM -SN OVC009 M04/M04 A2992 RMK AO2 CIG 007V012 P0000 T10391044
KPTK 110153Z 26006KT 2 1/2SM -SN OVC010 M04/M04 A2991 RMK AO2 CIG 007V012 SLP143 P0000 T10391044
KPTK 110112Z 24007KT 2 1/2SM -SN OVC010 M04/M04 A2992 RMK AO2 CIG 007V014 P0000 T10391044
KPTK 110053Z 24005KT 5SM -SN BKN010 OVC015 M04/M04 A2990 RMK AO2 SNB03 CIG 008V012 SLP140 P0000 I1000 T10391044
KPTK 110048Z 24007KT 5SM -SN OVC013 M04/M04 A2990 RMK AO2 SNB03 P0000 I1000
KPTK 110008Z 25006KT 5SM -SN OVC015 M04/M05 A2990 RMK AO2 SNB03 P0000 I1000 T10391050
KPTK 102353Z 24005KT 7SM OVC013 M04/M05 A2990 RMK AO2 SNE38 SLP139 P0000 60000 T10391050 11033 21039 51019
KPTK 102334Z 24006KT 8SM -SN OVC013 M04/M05 A2989 RMK AO2 P0000 T10391050
KPTK 102253Z 24008KT 6SM -SN OVC016 M04/M06 A2989 RMK AO2 SNB30 SLP134 P0000 T10391056
KPTK 102153Z 23010KT 10SM OVC021 M03/M08 A2986 RMK AO2 SLP126 T10331078
KPTK 102053Z 23008KT 10SM OVC021 M03/M08 A2984 RMK AO2 SLP119 60000 T10331083 55000
KPTK 101953Z 23010KT 10SM BKN026 OVC050 M04/M09 A2983 RMK AO2 SNE11 SLP115 P0000 T10391089
KPTK 101853Z 23009KT 9SM -SN FEW022 BKN028 OVC055 M04/M09 A2983 RMK AO2 SNB29 SLP116 P0000 T10391089
KPTK 101832Z 23009KT 10SM -SN BKN026 OVC041 M04/M09 A2984 RMK AO2 SNB29 P0000 T10391089
KPTK 101753Z 23010KT 10SM FEW024 BKN045 BKN070 M04/M09 A2985 RMK AO2 SLP120 60000 T10391089 11039 21044 58010
KPTK 101712Z 24013G17KT 10SM SCT021 BKN039 BKN050 M04/M08 A2986 RMK AO2 T10441078
KPTK 101653Z 23012KT 10SM BKN021 OVC037 M04/M08 A2988 RMK AO2 SNE31 SLP129 P0000 T10391078
KPTK 101553Z 23009G17KT 9SM -SN BKN023 OVC044 M04/M07 A2988 RMK AO2 SLP132 P0000 T10391067
KPTK 101513Z 23009KT 6SM -SN FEW013 BKN023 OVC035 M04/M07 A2988 RMK AO2 P0000 T10441067
KPTK 101511Z 23010KT 1/2SM R09R/P6000FT -SN FEW013 BKN023 OVC035 M04/M06 A2988 RMK AO2 SFC VIS 5 P0000 T10441061
KPTK 101453Z 22009KT 1/2SM R09R/P6000FT -SN FEW011 SCT025 OVC036 M04/M06 A2988 RMK AO2 SFC VIS 2 SLP131 P0000 60000 T10441061 57004
KPTK 101424Z 22011KT 1/2SM R09R/P6000FT -SN FEW011 SCT025 OVC033 M04/M06 A2987 RMK AO2 SFC VIS 1 3/4 P0000 T10441061
KPTK 101353Z 22008KT 1/2SM R09R/6000VP6000FT -SN FEW010 SCT016 OVC022 M04/M06 A2988 RMK AO2 SFC VIS 1 SLP131 P0000 T10441056
KPTK 101333Z 22007KT 1/2SM R09R/P6000FT -SN SCT016 OVC022 M04/M06 A2988 RMK AO2 SFC VIS 3/4 P0000 T10441056
KPTK 101309Z 23009KT 1 1/2SM -SN FEW012 BKN016 OVC025 M04/M06 A2988 RMK AO2 P0000 T10391061
KPTK 101253Z 24009KT 8SM -SN FEW012 BKN016 OVC032 M04/M06 A2989 RMK AO2 SLP134 P0000 T10391056
KPTK 101153Z 22008KT 9SM -SN SCT013 OVC020 M04/M06 A2989 RMK AO2 SLP135 P0000 60000 T10441061 11044 21067 55000
KPTK 101053Z 23007KT 9SM -SN BKN026 OVC034 M05/M06 A2989 RMK AO2 SNB46 SLP134 P0000 T10501061
KPTK 101031Z AUTO 23006KT 10SM BKN027 OVC033 M05/M07 A2988 RMK AO2 T10501067
KPTK 100953Z AUTO 23004KT 10SM OVC037 M06/M07 A2988 RMK AO2 SLP133 T10561072
KPTK 100853Z AUTO 23005KT 10SM OVC034 M06/M08 A2989 RMK AO2 SLP135 T10561078 58000
KPTK 100753Z AUTO 26006KT 10SM OVC048 M06/M08 A2990 RMK AO2 SLP138 T10561078
KPTK 100653Z AUTO 29006KT 10SM OVC055 M06/M08 A2990 RMK AO2 SLP138 T10561078
KPTK 100553Z AUTO 31013KT 10SM FEW018 BKN049 M04/M07 A2989 RMK AO2 SNE11 SLP135 P0000 60000 T10441072 11028 21050 53012
KPTK 100504Z AUTO 31008KT 7SM -SN SCT026 BKN039 OVC045 M04/M07 A2988 RMK AO2 P0000 T10391067
KPTK 100453Z 32011KT 8SM -SN BKN023 OVC047 M03/M07 A2988 RMK AO2 SLP132 LAST P0000 T10331067 410221056
KPTK 100353Z 30009KT 9SM -SN BKN018 OVC045 M03/M07 A2986 RMK AO2 SLP126 P0000 T10331067
KPTK 100336Z 31009KT 9SM -SN BKN018 OVC045 M03/M06 A2986 RMK AO2 P0000 T10331061